Flight Track Log - Related Links

Times and Time Zones

All times are in EDT time to prevent confusion due to time zone crossing. See the UCA3598 flight status page for this flight to view local times or setup timezone preferences in your user account.

Time Position Orientation Groundspeed Altitude Reporting Facility
EDT Latitude Longitude Course Direction KTS MPH feet Rate Location/Type
Sun 10:25:37 PM 38.9667 -77.5000 311° West 142 163 1,700  Level Potomac TRACON
Sun 10:26:31 PM 39.0000 -77.5500 311° West 178 205 2,800 1,421 Climbing Potomac TRACON
Sun 10:27:31 PM 39.0500 -77.5333 15° North 195 224 4,400 1,541 Climbing Potomac TRACON
Sun 10:29:34 PM 39.1564 -77.5294 North 197 227 7,500 1,443 Climbing Washington Center
Sun 10:30:34 PM 39.2086 -77.5228 North 197 227 8,800 1,300 Climbing Washington Center
Sun 10:31:34 PM 39.2650 -77.5136 North 197 227 10,100 1,300 Climbing Washington Center
Sun 10:32:34 PM 39.3214 -77.5044 North 202 232 11,400 1,250 Climbing Washington Center
Sun 10:33:34 PM 39.3797 -77.4953 North 202 232 12,600 1,150 Climbing Washington Center
Sun 10:34:34 PM 39.4383 -77.4861 North 202 232 13,700 1,190 Climbing Washington Center
Sun 10:35:35 PM 39.4947 -77.4767 North 202 232 15,000 952 Climbing Washington Center
Sun 10:38:02 PM 39.6442 -77.4253 15° North 222 255 17,000 812 Climbing New York Center
Sun 10:39:02 PM 39.7044 -77.3958 21° North 227 261 17,800 700 Climbing New York Center
Sun 10:40:02 PM 39.7664 -77.3667 20° North 235 270 18,400 600 Climbing New York Center
Sun 10:41:02 PM 39.8286 -77.3372 20° North 235 270 19,000 300 Climbing New York Center
Sun 10:42:02 PM 39.8972 -77.3031 21° North 250 288 19,000  Level New York Center
Sun 10:43:02 PM 39.9700 -77.2692 20° North 259 298 19,000  Level New York Center
Sun 10:44:02 PM 40.0431 -77.2300 22° Northeast 278 320 19,000  Level New York Center
Sun 10:45:02 PM 40.1181 -77.1936 20° North 283 326 19,000  Level New York Center
Sun 10:46:02 PM 40.1950 -77.1544 21° North 283 326 19,000  Level New York Center
Sun 10:47:02 PM 40.2700 -77.1178 20° North 283 326 19,000  Level New York Center
Sun 10:48:02 PM 40.3344 -77.0828 22° Northeast 283 326 19,000  Level New York Center
Sun 10:49:02 PM 40.4200 -77.0442 19° North 283 326 19,000  Level New York Center
Sun 10:50:02 PM 40.4864 -77.0094 22° Northeast 278 320 19,000  Level New York Center
Sun 10:51:02 PM 40.5700 -76.9678 21° North 283 326 19,000  Level New York Center
Sun 10:52:02 PM 40.6383 -76.9328 21° North 283 326 19,000 -300 Level New York Center
Sun 10:53:02 PM 40.7219 -76.8911 21° North 283 326 18,400 -900 Descending New York Center
Sun 10:54:02 PM 40.7947 -76.8536 21° North 297 342 17,200 -1,400 Descending New York Center
Sun 10:55:02 PM 40.8867 -76.8069 21° North 309 356 15,600 -1,500 Descending New York Center
Sun 10:56:02 PM 40.9594 -76.7667 23° Northeast 314 361 14,200 -1,300 Descending New York Center
Sun 10:57:02 PM 41.0408 -76.7244 21° North 314 361 13,000 -650 Descending New York Center
Sun 10:58:02 PM 41.1178 -76.6869 20° North 308 354 12,900 -50 Descending New York Center
Sun 10:59:02 PM 41.1994 -76.6389 24° Northeast 295 339 12,900  Level New York Center
Sun 11:00:02 PM 41.2742 -76.6014 21° North 287 330 12,900  Level New York Center
Sun 11:01:02 PM 41.3425 -76.5658 21° North 282 325 12,900  Level New York Center
Sun 11:02:02 PM 41.4172 -76.5281 21° North 282 325 12,900  Level New York Center
Sun 11:03:02 PM 41.4983 -76.4850 22° Northeast 277 319 12,900 -50 Level New York Center
Sun 11:04:02 PM 41.5731 -76.4472 21° North 277 319 12,800 -650 Descending New York Center
Sun 11:05:02 PM 41.6522 -76.4067 21° North 288 331 11,600 -1,100 Descending New York Center
Sun 11:06:02 PM 41.7214 -76.3542 30° Northeast 303 349 10,600 -1,100 Descending New York Center
Sun 11:07:02 PM 41.7925 -76.3017 29° Northeast 303 349 9,400 -1,300 Descending New York Center
Sun 11:08:02 PM 41.8636 -76.2489 29° Northeast 271 312 8,000 -1,600 Descending New York Center
Sun 11:09:02 PM 41.9306 -76.1961 30° Northeast 271 312 6,200 -1,700 Descending New York Center
Sun 11:10:02 PM 41.9933 -76.1425 32° Northeast 271 312 4,600 -1,100 Descending New York Center
Sun 11:11:02 PM 42.0378 -76.0847 44° Northeast 247 284 4,000 -350 Descending New York Center
Sun 11:12:02 PM 42.0883 -76.0217 43° Northeast 233 268 3,900 -500 Descending New York Center
Sun 11:13:02 PM 42.1197 -75.9739 48° Northeast 200 230 3,000 -650 Descending New York Center
Sun 11:14:02 PM 42.1461 -75.9369 46° Northeast 164 189 2,600 -400 Descending New York Center
Sun 11:15:02 PM 42.1767 -75.9503 342° North 108 124 2,200 -250 Descending New York Center
Sun 11:16:02 PM 42.2022 -75.9411 15° North 108 124 2,100 3,400 Descending New York Center
Sun 11:17:02 PM 42.2272 -75.9375 North 108 124 9,000 3,450 Climbing New York Center
Sun 11:18:02 PM 42.2547 -75.9314 North 108 124 9,000  Level New York Center

Login

Don't have an account? Register now (free) for customized features, flight alerts, and more!